createdAt,value
2023-04-08T00:00:31.814Z,16.05
2023-04-08T00:03:05.157Z,16.35
2023-04-08T00:05:38.064Z,15.40
2023-04-08T00:08:10.938Z,15.70
2023-04-08T00:10:43.785Z,17.02
2023-04-08T00:13:18.511Z,14.65
2023-04-08T00:15:52.402Z,14.60
2023-04-08T00:18:25.276Z,13.95
2023-04-08T00:20:58.249Z,14.10
2023-04-08T00:23:31.106Z,13.67
2023-04-08T00:26:21.551Z,14.00
2023-04-08T00:28:56.272Z,13.40
2023-04-08T00:31:29.238Z,15.00
2023-04-08T00:34:05.149Z,13.98
2023-04-08T00:36:38.019Z,14.90
2023-04-08T00:39:11.297Z,13.93
2023-04-08T00:41:44.262Z,14.45
2023-04-08T00:44:21.392Z,15.45
2023-04-08T00:46:54.252Z,14.57
2023-04-08T00:49:27.513Z,15.70
2023-04-08T00:52:00.585Z,15.43
2023-04-08T00:54:33.484Z,15.98
2023-04-08T00:57:07.065Z,15.52
2023-04-08T00:59:42.018Z,15.85
2023-04-08T01:02:30.003Z,14.38
2023-04-08T01:05:06.502Z,15.07
2023-04-08T01:07:45.808Z,16.45
2023-04-08T01:10:23.375Z,15.02
2023-04-08T01:12:58.251Z,13.65
2023-04-08T01:15:35.484Z,13.60
2023-04-08T01:18:10.609Z,14.73
2023-04-08T01:20:44.311Z,13.30
2023-04-08T01:23:24.036Z,13.70
2023-04-08T01:25:58.654Z,12.40
2023-04-08T01:28:34.735Z,12.52
2023-04-08T01:31:09.214Z,13.00
2023-04-08T01:33:42.877Z,11.98
2023-04-08T01:36:16.888Z,11.15
2023-04-08T01:41:25.161Z,11.98
2023-04-08T01:43:59.211Z,11.75
2023-04-08T01:46:33.570Z,11.07
2023-04-08T01:49:07.601Z,11.65
2023-04-08T01:51:42.468Z,12.93
2023-04-08T01:54:15.406Z,12.05
2023-04-08T01:56:52.187Z,13.67
2023-04-08T01:59:32.709Z,13.23
2023-04-08T02:02:09.986Z,12.45
2023-04-08T02:04:43.094Z,12.85
2023-04-08T02:07:16.644Z,13.18
2023-04-08T02:12:24.303Z,12.10
2023-04-08T02:14:58.632Z,13.02
2023-04-08T02:17:37.470Z,12.70
2023-04-08T02:20:14.647Z,14.00
2023-04-08T02:22:51.645Z,13.65
2023-04-08T02:25:26.364Z,12.98
2023-04-08T02:28:02.416Z,12.65
2023-04-08T02:30:36.794Z,13.35
2023-04-08T02:33:09.955Z,13.02
2023-04-08T02:35:44.350Z,15.25
2023-04-08T02:38:17.247Z,13.57
2023-04-08T02:40:51.131Z,13.70
2023-04-08T02:46:04.236Z,11.80
2023-04-08T02:48:37.344Z,12.32
2023-04-08T02:51:10.241Z,13.18
2023-04-08T02:53:43.223Z,11.63
2023-04-08T02:56:16.140Z,12.93
2023-04-08T02:58:52.306Z,12.07
2023-04-08T03:01:25.942Z,12.00
2023-04-08T03:03:58.852Z,12.05
2023-04-08T03:06:32.222Z,11.57
2023-04-08T03:09:05.913Z,11.60
2023-04-08T03:11:38.714Z,11.93
2023-04-08T03:14:12.835Z,13.15
2023-04-08T03:16:45.745Z,13.15
2023-04-08T03:19:18.618Z,13.53
2023-04-08T03:21:51.450Z,13.27
2023-04-08T03:24:24.417Z,12.75
2023-04-08T03:26:57.224Z,13.57
2023-04-08T03:29:31.418Z,13.48
2023-04-08T03:32:04.437Z,12.65
2023-04-08T03:34:37.247Z,11.52
2023-04-08T03:37:10.058Z,13.30
2023-04-08T03:39:42.923Z,13.80
2023-04-08T03:42:15.889Z,12.27
2023-04-08T03:44:50.123Z,14.00
2023-04-08T03:47:23.060Z,12.90
2023-04-08T03:49:59.727Z,14.10
2023-04-08T03:52:32.541Z,12.57
2023-04-08T03:55:06.169Z,12.52
2023-04-08T03:57:38.948Z,13.20
2023-04-08T04:00:14.463Z,12.85
2023-04-08T04:02:47.348Z,13.45
2023-04-08T04:05:20.495Z,14.55
2023-04-08T04:07:53.343Z,13.77
2023-04-08T04:10:26.328Z,14.77
2023-04-08T04:12:59.214Z,13.52
2023-04-08T04:15:33.424Z,14.07
2023-04-08T04:18:06.431Z,14.63
2023-04-08T04:20:42.459Z,13.68
2023-04-08T04:23:15.265Z,14.60
2023-04-08T04:25:48.053Z,14.50
2023-04-08T04:28:20.835Z,14.93
2023-04-08T04:30:56.572Z,13.30
2023-04-08T04:33:29.716Z,13.88
2023-04-08T04:36:02.912Z,13.50
2023-04-08T04:38:35.920Z,16.77
2023-04-08T04:41:08.793Z,16.25
2023-04-08T04:43:41.708Z,16.43
2023-04-08T04:46:16.132Z,13.83
2023-04-08T04:48:49.144Z,13.68
2023-04-08T04:51:22.088Z,14.07
2023-04-08T04:53:54.889Z,14.40
2023-04-08T04:56:27.865Z,14.77
2023-04-08T04:59:00.710Z,14.60
2023-04-08T05:01:35.064Z,16.00
2023-04-08T05:04:08.255Z,15.65
2023-04-08T05:06:41.434Z,14.80
2023-04-08T05:09:14.204Z,13.95
2023-04-08T05:11:47.003Z,13.90
2023-04-08T05:14:19.794Z,13.93
2023-04-08T05:16:53.924Z,13.75
2023-04-08T05:19:26.839Z,13.52
2023-04-08T05:21:59.750Z,14.53
2023-04-08T05:24:32.605Z,13.95
2023-04-08T05:27:05.484Z,13.50
2023-04-08T05:29:38.394Z,14.27
2023-04-08T05:32:12.549Z,15.02
2023-04-08T05:34:45.709Z,14.43
2023-04-08T05:37:18.485Z,15.02
2023-04-08T05:39:51.352Z,14.75
2023-04-08T05:42:27.383Z,14.73
2023-04-08T05:45:00.388Z,13.32
2023-04-08T05:47:34.629Z,13.15
2023-04-08T05:50:08.914Z,12.48
2023-04-08T05:52:45.776Z,11.70
2023-04-08T05:55:18.629Z,11.50
2023-04-08T05:57:51.431Z,12.13
2023-04-08T06:00:24.216Z,12.07
2023-04-08T06:02:58.465Z,12.48
2023-04-08T06:05:32.613Z,12.73
2023-04-08T06:08:06.082Z,11.77
2023-04-08T06:10:38.939Z,12.85
2023-04-08T06:13:11.733Z,12.75
2023-04-08T06:15:44.640Z,12.90
2023-04-08T06:18:19.136Z,11.73
2023-04-08T06:20:52.023Z,12.20
2023-04-08T06:23:24.903Z,13.35
2023-04-08T06:25:57.738Z,12.27
2023-04-08T06:28:30.793Z,12.25
2023-04-08T06:31:03.599Z,12.27
2023-04-08T06:33:37.763Z,12.15
2023-04-08T06:36:11.284Z,10.85
2023-04-08T06:38:44.102Z,11.52
2023-04-08T06:41:16.950Z,11.10
2023-04-08T06:43:49.850Z,9.87
2023-04-08T06:46:22.776Z,10.60
2023-04-08T06:48:57.098Z,11.50
2023-04-08T06:51:29.963Z,10.52
2023-04-08T06:54:02.773Z,10.50
2023-04-08T06:56:35.588Z,11.43
2023-04-08T06:59:08.397Z,11.18
2023-04-08T07:01:41.764Z,10.97
2023-04-08T07:04:16.091Z,11.02
2023-04-08T07:06:49.016Z,11.48
2023-04-08T07:09:21.849Z,12.10
2023-04-08T07:11:54.744Z,10.97
2023-04-08T07:14:27.570Z,11.20
2023-04-08T07:17:00.638Z,15.37
2023-04-08T07:19:34.956Z,11.57
2023-04-08T07:22:07.737Z,10.80
2023-04-08T07:24:42.893Z,10.97
2023-04-08T07:27:15.852Z,10.38
2023-04-08T07:29:53.260Z,9.80
2023-04-08T07:32:26.183Z,9.48
2023-04-08T07:35:01.780Z,9.68
2023-04-08T07:37:34.634Z,9.95
2023-04-08T07:40:08.859Z,10.53
2023-04-08T07:42:41.742Z,9.65
2023-04-08T07:45:14.555Z,10.07
2023-04-08T07:47:47.497Z,10.25
2023-04-08T07:50:21.772Z,9.73
2023-04-08T07:52:54.858Z,9.50
2023-04-08T07:55:27.684Z,10.32
2023-04-08T07:58:01.294Z,10.30
2023-04-08T08:00:34.110Z,9.20
2023-04-08T08:03:06.960Z,9.43
2023-04-08T08:05:41.437Z,8.85
2023-04-08T08:08:14.250Z,9.70
2023-04-08T08:10:47.120Z,9.02
2023-04-08T08:13:22.097Z,9.60
2023-04-08T08:15:55.088Z,8.70
2023-04-08T08:18:27.933Z,9.00
2023-04-08T08:21:02.747Z,8.63
2023-04-08T08:23:35.552Z,7.78
2023-04-08T08:26:10.719Z,7.80
2023-04-08T08:28:43.618Z,8.40
2023-04-08T08:31:16.447Z,8.13
2023-04-08T08:33:49.434Z,7.88
2023-04-08T08:38:56.520Z,8.07
2023-04-08T08:41:35.284Z,7.78
2023-04-08T08:44:08.975Z,7.80
2023-04-08T08:46:45.450Z,7.07
2023-04-08T08:49:18.542Z,7.75
2023-04-08T08:51:55.908Z,7.80
2023-04-08T08:54:28.893Z,7.22
2023-04-08T08:57:01.755Z,7.40
2023-04-08T09:04:59.633Z,7.47
2023-04-08T09:07:38.142Z,6.95
2023-04-08T09:10:11.683Z,6.78
2023-04-08T09:12:55.960Z,6.60
2023-04-08T09:15:29.022Z,6.32
2023-04-08T09:18:02.313Z,6.90
2023-04-08T09:20:35.641Z,6.80
2023-04-08T09:23:09.803Z,6.80
2023-04-08T09:25:42.609Z,6.95
2023-04-08T09:28:21.293Z,7.15
2023-04-08T09:30:54.088Z,6.30
2023-04-08T09:33:32.336Z,6.18
2023-04-08T09:36:05.267Z,6.75
2023-04-08T09:38:39.622Z,6.72
2023-04-08T09:41:16.831Z,6.20
2023-04-08T09:43:52.477Z,6.43
2023-04-08T09:46:28.796Z,6.97
2023-04-08T09:49:07.393Z,6.18
2023-04-08T09:51:44.733Z,6.28
2023-04-08T09:54:23.155Z,5.85
2023-04-08T09:57:10.722Z,5.88
2023-04-08T09:59:58.736Z,5.55
2023-04-08T10:02:42.180Z,6.43
2023-04-08T10:05:16.930Z,6.63
2023-04-08T10:07:51.385Z,6.35
2023-04-08T10:10:27.213Z,6.40
2023-04-08T10:13:00.480Z,6.18
2023-04-08T10:15:34.152Z,6.88
2023-04-08T10:18:33.833Z,6.03
2023-04-08T10:21:27.183Z,6.32
2023-04-08T10:24:05.948Z,6.22
2023-04-08T10:26:42.279Z,6.80
2023-04-08T10:29:34.723Z,6.50
2023-04-08T10:32:07.745Z,6.07
2023-04-08T10:34:54.572Z,7.07
2023-04-08T10:37:27.482Z,6.82
2023-04-08T10:40:00.407Z,6.65
2023-04-08T10:42:34.628Z,6.38
2023-04-08T10:45:08.498Z,6.25
2023-04-08T10:47:41.780Z,5.75
2023-04-08T10:50:16.520Z,6.43
2023-04-08T10:52:50.057Z,6.05
2023-04-08T10:55:24.964Z,6.07
2023-04-08T10:58:07.019Z,6.43
2023-04-08T11:00:41.114Z,6.00
2023-04-08T11:03:15.672Z,6.35
2023-04-08T11:05:50.954Z,6.03
2023-04-08T11:08:29.100Z,5.80
2023-04-08T11:11:02.525Z,6.00
2023-04-08T11:13:37.194Z,5.22
2023-04-08T11:16:18.094Z,5.50
2023-04-08T11:18:55.565Z,5.90
2023-04-08T11:21:29.674Z,6.07
2023-04-08T11:24:02.495Z,5.80
2023-04-08T11:26:35.682Z,6.20
2023-04-08T11:29:12.797Z,6.15
2023-04-08T11:31:47.333Z,5.97
2023-04-08T11:34:24.163Z,6.10
2023-04-08T11:36:58.711Z,6.10
2023-04-08T11:39:32.159Z,6.63
2023-04-08T11:42:05.167Z,6.07
2023-04-08T11:44:40.486Z,7.57
2023-04-08T11:47:13.346Z,6.90
2023-04-08T11:52:19.107Z,6.93
2023-04-08T11:57:30.496Z,6.25
2023-04-08T12:00:06.718Z,5.93
2023-04-08T12:02:47.147Z,6.30
2023-04-08T12:05:20.532Z,5.57
2023-04-08T12:07:53.454Z,5.95
2023-04-08T12:10:26.555Z,6.10
2023-04-08T12:12:59.474Z,6.53
2023-04-08T12:15:33.875Z,6.63
2023-04-08T12:18:06.883Z,6.05
2023-04-08T12:20:39.849Z,5.70
2023-04-08T12:23:12.710Z,6.75
2023-04-08T12:25:45.587Z,6.05
2023-04-08T12:30:52.579Z,6.03
2023-04-08T12:33:25.431Z,6.32
2023-04-08T12:35:59.298Z,6.22
2023-04-08T12:38:33.488Z,5.82
2023-04-08T12:41:07.754Z,6.55
2023-04-08T12:43:42.195Z,6.32
2023-04-08T12:46:16.636Z,5.72
2023-04-08T12:48:56.556Z,6.18
2023-04-08T12:51:36.740Z,6.05
2023-04-08T12:56:43.319Z,6.80
2023-04-08T12:59:16.333Z,7.65
2023-04-08T13:01:50.774Z,7.10
2023-04-08T13:04:52.576Z,7.55
2023-04-08T13:07:27.256Z,7.43
2023-04-08T13:10:08.097Z,7.85
2023-04-08T13:12:42.660Z,7.82
2023-04-08T13:15:23.203Z,7.22
2023-04-08T13:18:00.122Z,7.30
2023-04-08T13:20:33.613Z,7.35
2023-04-08T13:25:39.156Z,7.43
2023-04-08T13:28:12.073Z,8.13
2023-04-08T13:30:44.984Z,7.28
2023-04-08T13:33:19.157Z,7.20
2023-04-08T13:35:52.044Z,6.95
2023-04-08T13:38:25.037Z,7.85
2023-04-08T13:40:57.851Z,7.45
2023-04-08T13:43:30.664Z,7.80
2023-04-08T13:46:03.621Z,8.20
2023-04-08T13:48:38.233Z,7.20
2023-04-08T13:51:11.251Z,6.63
2023-04-08T13:53:44.188Z,7.20
2023-04-08T13:56:17.004Z,7.57
2023-04-08T13:58:56.766Z,8.73
2023-04-08T14:01:30.542Z,7.93
2023-04-08T14:04:04.924Z,7.00
2023-04-08T14:06:37.859Z,7.05
2023-04-08T14:09:10.799Z,7.15
2023-04-08T14:11:43.675Z,7.18
2023-04-08T14:14:16.791Z,17.17
2023-04-08T14:16:49.756Z,8.38
2023-04-08T14:19:25.918Z,6.85
2023-04-08T14:21:58.748Z,7.28
2023-04-08T14:24:31.590Z,7.93
2023-04-08T14:27:04.945Z,6.53
2023-04-08T14:29:37.812Z,6.00
2023-04-08T14:32:10.596Z,6.18
2023-04-08T14:34:44.823Z,5.82
2023-04-08T14:37:18.987Z,6.78
2023-04-08T14:39:51.818Z,6.13
2023-04-08T14:42:24.799Z,7.75
2023-04-08T14:44:58.644Z,6.38
2023-04-08T14:47:31.641Z,6.18
2023-04-08T14:50:07.797Z,7.18
2023-04-08T14:52:40.683Z,6.82
2023-04-08T14:55:13.677Z,6.43
2023-04-08T14:57:46.636Z,6.93
2023-04-08T15:00:19.459Z,7.63
2023-04-08T15:02:52.417Z,8.07
2023-04-08T15:05:26.827Z,7.53
2023-04-08T15:07:59.801Z,7.22
2023-04-08T15:10:33.018Z,7.85
2023-04-08T15:13:05.899Z,7.75
2023-04-08T15:15:38.706Z,7.18
2023-04-08T15:18:11.640Z,7.25
2023-04-08T15:20:46.048Z,6.32
2023-04-08T15:23:18.847Z,6.55
2023-04-08T15:25:51.946Z,7.22
2023-04-08T15:28:24.915Z,6.50
2023-04-08T15:30:57.717Z,6.05
2023-04-08T15:33:30.808Z,6.80
2023-04-08T15:36:06.518Z,6.70
2023-04-08T15:38:39.925Z,6.30
2023-04-08T15:41:22.156Z,6.72
2023-04-08T15:43:58.116Z,6.63
2023-04-08T15:46:31.637Z,6.50
2023-04-08T15:49:04.653Z,6.43
2023-04-08T15:51:38.923Z,6.40
2023-04-08T15:54:11.878Z,7.07
2023-04-08T15:56:46.569Z,6.80
2023-04-08T15:59:19.428Z,6.80
2023-04-08T16:01:52.711Z,6.50
2023-04-08T16:04:25.986Z,6.63
2023-04-08T16:07:00.324Z,6.95
2023-04-08T16:09:33.210Z,6.45
2023-04-08T16:12:06.148Z,6.32
2023-04-08T16:14:39.722Z,7.00
2023-04-08T16:19:45.421Z,6.47
2023-04-08T16:22:19.688Z,7.07
2023-04-08T16:24:53.074Z,7.00
2023-04-08T16:27:26.058Z,7.53
2023-04-08T16:29:58.871Z,7.20
2023-04-08T16:32:31.756Z,6.63
2023-04-08T16:35:04.857Z,6.57
2023-04-08T16:37:39.317Z,6.38
2023-04-08T16:40:12.730Z,6.47
2023-04-08T16:42:46.093Z,6.85
2023-04-08T16:45:19.139Z,6.30
2023-04-08T16:47:52.156Z,6.50
2023-04-08T16:50:25.602Z,6.97
2023-04-08T16:52:59.795Z,6.28
2023-04-08T16:55:34.195Z,5.53
2023-04-08T16:58:07.399Z,5.60
2023-04-08T17:00:40.394Z,6.22
2023-04-08T17:03:13.506Z,6.05
2023-04-08T17:05:46.641Z,6.43
2023-04-08T17:10:54.306Z,7.10
2023-04-08T17:13:27.388Z,6.60
2023-04-08T17:16:00.187Z,6.57
2023-04-08T17:18:33.058Z,6.80
2023-04-08T17:21:06.800Z,6.47
2023-04-08T17:26:13.904Z,6.93
2023-04-08T17:28:46.781Z,7.65
2023-04-08T17:31:19.612Z,7.25
2023-04-08T17:33:52.579Z,7.38
2023-04-08T17:36:25.765Z,7.13
2023-04-08T17:38:59.963Z,6.70
2023-04-08T17:41:39.862Z,6.95
2023-04-08T17:44:13.947Z,6.85
2023-04-08T17:46:47.089Z,7.55
2023-04-08T17:49:19.937Z,6.90
2023-04-08T17:51:52.941Z,8.13
2023-04-08T17:54:27.186Z,7.65
2023-04-08T17:57:00.052Z,7.30
2023-04-08T17:59:32.902Z,8.32
2023-04-08T18:02:06.178Z,7.63
2023-04-08T18:04:39.258Z,8.05
2023-04-08T18:07:12.112Z,8.00
2023-04-08T18:09:48.676Z,7.67
2023-04-08T18:12:21.560Z,8.52
2023-04-08T18:14:54.386Z,7.97
2023-04-08T18:17:27.721Z,8.07
2023-04-08T18:20:00.559Z,8.50
2023-04-08T18:22:34.154Z,8.27
2023-04-08T18:25:09.015Z,9.10
2023-04-08T18:27:41.862Z,8.43
2023-04-08T18:30:14.760Z,8.13
2023-04-08T18:32:47.634Z,7.47
2023-04-08T18:35:20.486Z,8.98
2023-04-08T18:37:53.388Z,8.27
2023-04-08T18:40:28.003Z,8.35
2023-04-08T18:43:03.514Z,8.95
2023-04-08T18:45:36.664Z,7.75
2023-04-08T18:48:09.634Z,8.15
2023-04-08T18:50:42.451Z,8.63
2023-04-08T18:53:15.436Z,8.88
2023-04-08T18:55:51.223Z,10.65
2023-04-08T18:58:24.237Z,9.38
2023-04-08T19:00:57.051Z,9.45
2023-04-08T19:03:29.922Z,9.53
2023-04-08T19:06:06.227Z,9.13
2023-04-08T19:08:39.142Z,9.05
2023-04-08T19:11:13.351Z,9.38
2023-04-08T19:13:46.476Z,8.77
2023-04-08T19:16:19.612Z,8.48
2023-04-08T19:18:52.847Z,8.98
2023-04-08T19:21:27.244Z,8.93
2023-04-08T19:24:00.162Z,8.73
2023-04-08T19:26:34.720Z,8.68
2023-04-08T19:29:09.386Z,7.85
2023-04-08T19:31:42.424Z,8.43
2023-04-08T19:34:15.426Z,9.13
2023-04-08T19:36:54.068Z,8.30
2023-04-08T19:39:42.298Z,8.05
2023-04-08T19:42:28.946Z,8.15
2023-04-08T19:45:21.521Z,8.65
2023-04-08T19:48:02.915Z,7.75
2023-04-08T19:50:41.416Z,6.78
2023-04-08T19:53:19.087Z,7.45
2023-04-08T19:56:13.880Z,7.22
2023-04-08T19:58:55.776Z,7.40
2023-04-08T20:01:28.631Z,7.13
2023-04-08T20:04:01.541Z,7.60
2023-04-08T20:06:45.589Z,7.43
2023-04-08T20:11:51.227Z,6.80
2023-04-08T20:14:25.522Z,7.30
2023-04-08T20:16:58.502Z,6.55
2023-04-08T20:19:31.670Z,7.35
2023-04-08T20:22:05.498Z,6.53
2023-04-08T20:24:38.615Z,6.68
2023-04-08T20:27:13.298Z,6.22
2023-04-08T20:29:49.993Z,6.63
2023-04-08T20:32:23.008Z,6.85
2023-04-08T20:34:56.178Z,8.88
2023-04-08T20:37:29.002Z,7.30
2023-04-08T20:40:02.423Z,7.37
2023-04-08T20:42:35.830Z,6.75
2023-04-08T20:45:11.703Z,6.65
2023-04-08T20:47:47.467Z,6.75
2023-04-08T20:50:20.528Z,7.00
2023-04-08T20:52:53.613Z,7.38
2023-04-08T20:55:26.830Z,6.90
2023-04-08T20:58:00.592Z,7.07
2023-04-08T21:00:35.153Z,7.57
2023-04-08T21:03:08.196Z,7.30
2023-04-08T21:05:41.072Z,7.57
2023-04-08T21:08:14.233Z,8.00
2023-04-08T21:10:49.571Z,7.15
2023-04-08T21:13:22.466Z,7.65
2023-04-08T21:15:59.102Z,7.65
2023-04-08T21:18:32.222Z,8.85
2023-04-08T21:21:07.753Z,8.50
2023-04-08T21:23:40.994Z,8.50
2023-04-08T21:26:17.022Z,9.00
2023-04-08T21:28:51.224Z,8.50
2023-04-08T21:31:25.674Z,8.52
2023-04-08T21:34:01.391Z,9.02
2023-04-08T21:36:35.498Z,8.68
2023-04-08T21:39:10.860Z,8.00
2023-04-08T21:41:43.670Z,8.20
2023-04-08T21:44:16.524Z,8.63
2023-04-08T21:46:56.418Z,8.10
2023-04-08T21:49:29.863Z,8.80
2023-04-08T21:52:03.253Z,8.50
2023-04-08T21:54:36.478Z,8.27
2023-04-08T21:57:11.399Z,8.93
2023-04-08T21:59:44.298Z,9.95
2023-04-08T22:02:18.640Z,11.60
2023-04-08T22:04:52.323Z,13.77
2023-04-08T22:07:25.691Z,16.17
2023-04-08T22:09:59.139Z,16.75
2023-04-08T22:12:34.267Z,16.95
2023-04-08T22:15:08.419Z,16.05
2023-04-08T22:17:43.181Z,15.77
2023-04-08T22:20:16.145Z,16.98
2023-04-08T22:22:49.002Z,14.77
2023-04-08T22:25:24.310Z,12.73
2023-04-08T22:27:57.368Z,12.35
2023-04-08T22:30:31.193Z,12.55
2023-04-08T22:35:38.115Z,11.27
2023-04-08T22:38:10.956Z,11.67
2023-04-08T22:40:43.886Z,11.73
2023-04-08T22:43:16.710Z,10.13
2023-04-08T22:45:49.743Z,10.40
2023-04-08T22:48:24.017Z,8.93
2023-04-08T22:50:56.877Z,8.88
2023-04-08T22:53:29.722Z,8.67
2023-04-08T22:56:02.566Z,8.13
2023-04-08T22:58:35.750Z,8.73
2023-04-08T23:01:13.210Z,8.63
2023-04-08T23:03:47.564Z,8.50
2023-04-08T23:06:20.588Z,8.63
2023-04-08T23:08:53.625Z,8.75
2023-04-08T23:11:27.284Z,9.48
2023-04-08T23:14:00.129Z,9.23
2023-04-08T23:16:32.968Z,9.33
2023-04-08T23:19:07.151Z,9.60
2023-04-08T23:21:40.426Z,10.10
2023-04-08T23:24:13.212Z,9.38
2023-04-08T23:26:46.047Z,9.80
2023-04-08T23:29:18.844Z,10.03
2023-04-08T23:31:51.785Z,9.00
2023-04-08T23:34:26.025Z,9.33
2023-04-08T23:36:58.874Z,8.75
2023-04-08T23:39:31.751Z,9.80
2023-04-08T23:42:04.813Z,9.00
2023-04-08T23:44:37.633Z,8.73
2023-04-08T23:47:10.473Z,9.93
2023-04-08T23:49:44.632Z,10.97
2023-04-08T23:52:17.470Z,11.18
2023-04-08T23:54:51.033Z,10.50
2023-04-08T23:57:23.897Z,11.07
2023-04-08T23:59:57.823Z,10.87
